Time;durP1;ratioP1;P1;durP2;ratioP2;P2;SDS_P1;SDS_P2;PMS_P1;PMS_P2;Temp;Humidity;BMP_temperature;BMP_pressure;BME280_temperature;BME280_humidity;BME280_pressure;Samples;Min_cycle;Max_cycle;Signal;HPM_P1;HPM_P2
2022/08/14 00:04:27;;;;;;;15.38;12.95;;;;;;;18.86;100.00;98644.19;4234510;83;21522;-84
2022/08/14 00:10:33;;;;;;;19.85;14.78;;;;;;;18.84;100.00;98641.86;4221200;83;21022;-83
2022/08/14 00:16:34;;;;;;;17.33;14.23;;;;;;;18.85;100.00;98635.12;4211688;83;21034;-83
2022/08/14 00:22:36;;;;;;;17.75;14.10;;;;;;;18.86;100.00;98629.73;4234838;83;21053;-84
2022/08/14 00:28:37;;;;;;;16.60;14.03;;;;;;;18.86;100.00;98623.39;4189444;83;21679;-83
2022/08/14 00:34:38;;;;;;;17.25;14.68;;;;;;;18.87;100.00;98619.42;4168246;84;21073;-83
2022/08/14 00:40:40;;;;;;;17.37;14.78;;;;;;;18.87;100.00;98612.49;4172049;84;21921;-84
2022/08/14 00:46:49;;;;;;;21.65;15.15;;;;;;;18.87;100.00;98609.72;4168528;84;21019;-83
2022/08/14 00:53:10;;;;;;;19.73;15.48;;;;;;;18.86;100.00;98602.00;4172240;84;22254;-83
2022/08/14 00:59:13;;;;;;;16.75;14.35;;;;;;;18.86;100.00;98596.45;4172439;84;21044;-82
2022/08/14 01:05:23;;;;;;;18.30;14.50;;;;;;;18.85;100.00;98589.96;4171078;84;20990;-83
2022/08/14 01:11:30;;;;;;;24.80;15.55;;;;;;;18.81;100.00;98592.83;4173878;84;21969;-84
2022/08/14 01:24:00;;;;;;;16.27;14.50;;;;;;;18.78;100.00;98581.86;4171011;84;21023;-84
2022/08/14 01:30:05;;;;;;;17.62;14.87;;;;;;;18.77;100.00;98585.23;4211261;83;21053;-84
2022/08/14 01:36:11;;;;;;;22.70;14.43;;;;;;;18.80;100.00;98582.17;4208954;83;21045;-84
2022/08/14 01:42:13;;;;;;;19.10;13.28;;;;;;;18.77;100.00;98578.30;4211603;83;21081;-84
2022/08/14 01:48:14;;;;;;;14.10;12.73;;;;;;;18.77;100.00;98578.30;4212054;83;21546;-84
2022/08/14 01:54:21;;;;;;;15.23;13.28;;;;;;;18.76;100.00;98574.58;4202984;83;22122;-84
2022/08/14 02:00:24;;;;;;;15.13;13.62;;;;;;;18.73;100.00;98578.39;4208771;83;21002;-83
2022/08/14 02:06:27;;;;;;;16.15;13.35;;;;;;;18.74;100.00;98580.56;4206992;83;21035;-84
2022/08/14 02:12:31;;;;;;;16.17;13.10;;;;;;;18.73;100.00;98577.59;4229395;83;21166;-84
2022/08/14 02:18:34;;;;;;;17.85;12.93;;;;;;;18.72;100.00;98576.05;4223601;83;20951;-84
2022/08/14 02:24:37;;;;;;;16.23;12.95;;;;;;;18.71;100.00;98578.67;4212809;83;21074;-84
2022/08/14 02:30:45;;;;;;;17.80;13.25;;;;;;;18.69;100.00;98572.17;4222148;82;21853;-83
2022/08/14 02:36:53;;;;;;;16.12;13.78;;;;;;;18.63;100.00;98568.98;4105724;85;21107;-84
2022/08/14 02:42:55;;;;;;;18.87;13.50;;;;;;;18.62;100.00;98558.50;4220481;83;21607;-85
2022/08/14 02:48:57;;;;;;;20.68;13.72;;;;;;;18.57;100.00;98561.80;4222264;83;21444;-83
2022/08/14 02:55:11;;;;;;;22.73;14.18;;;;;;;18.58;100.00;98557.05;4211629;83;21005;-83
2022/08/14 03:01:16;;;;;;;15.30;13.72;;;;;;;18.57;100.00;98558.27;4218506;83;21038;-84
2022/08/14 03:07:38;;;;;;;19.62;14.95;;;;;;;18.57;100.00;98562.44;4201202;84;21007;-83
2022/08/14 03:13:59;;;;;;;19.05;15.43;;;;;;;18.56;100.00;98561.64;4210728;84;20987;-83
2022/08/14 03:20:03;;;;;;;24.98;16.00;;;;;;;18.57;100.00;98560.42;4192353;84;21767;-83
2022/08/14 03:26:16;;;;;;;21.68;16.57;;;;;;;18.54;100.00;98555.75;4197835;84;21012;-84
2022/08/14 03:32:19;;;;;;;26.65;17.90;;;;;;;18.45;100.00;98553.44;4162158;83;21063;-85
2022/08/14 03:38:20;;;;;;;20.02;16.00;;;;;;;18.39;100.00;98551.83;4146473;84;21043;-87
2022/08/14 03:44:23;;;;;;;19.23;15.00;;;;;;;18.28;100.00;98537.45;4147816;84;21058;-90
2022/08/14 03:50:25;;;;;;;20.30;16.48;;;;;;;18.26;100.00;98550.95;4137823;84;21093;-86
2022/08/14 03:56:35;;;;;;;20.95;15.78;;;;;;;18.27;100.00;98549.76;4138756;84;21023;-87
2022/08/14 04:02:39;;;;;;;22.42;18.37;;;;;;;18.24;100.00;98551.23;4144759;84;21503;-87
2022/08/14 04:08:41;;;;;;;21.02;17.60;;;;;;;18.24;100.00;98552.61;4146940;84;22270;-87
2022/08/14 04:14:43;;;;;;;24.20;17.50;;;;;;;18.27;100.00;98556.69;4142843;84;21026;-88
2022/08/14 04:20:44;;;;;;;21.77;17.95;;;;;;;18.29;100.00;98552.84;4135087;84;21015;-86
2022/08/14 04:26:55;;;;;;;25.62;17.10;;;;;;;18.34;100.00;98554.30;4135141;84;21043;-86
2022/08/14 04:32:57;;;;;;;22.13;18.75;;;;;;;18.39;100.00;98548.27;4113972;85;21013;-86
2022/08/14 04:51:56;;;;;;;18.98;16.15;;;;;;;18.46;100.00;98548.84;4210747;83;21058;-86
2022/08/14 04:57:58;;;;;;;22.55;17.67;;;;;;;18.49;100.00;98548.59;4211429;83;21899;-85
2022/08/14 05:03:59;;;;;;;24.05;18.20;;;;;;;18.52;100.00;98547.12;4213786;83;20975;-85
2022/08/14 05:10:00;;;;;;;25.00;17.48;;;;;;;18.53;100.00;98547.88;4218081;83;21012;-86
2022/08/14 05:16:04;;;;;;;21.33;17.40;;;;;;;18.55;100.00;98541.30;4224533;83;20979;-86
2022/08/14 05:22:08;;;;;;;19.40;16.80;;;;;;;18.53;100.00;98544.50;4215175;83;21111;-85
2022/08/14 05:28:36;;;;;;;22.87;18.57;;;;;;;18.56;100.00;98543.63;4215523;83;21532;-86
2022/08/14 05:34:37;;;;;;;22.30;18.05;;;;;;;18.58;100.00;98537.64;4193175;83;21052;-86
2022/08/14 05:40:40;;;;;;;20.57;17.40;;;;;;;18.57;100.00;98538.88;4196129;84;21535;-86
2022/08/14 05:46:41;;;;;;;25.32;18.67;;;;;;;18.62;100.00;98538.34;4189514;83;21151;-85
2022/08/14 05:52:49;;;;;;;19.32;17.12;;;;;;;18.66;100.00;98522.37;4192179;84;21048;-86
2022/08/14 05:58:55;;;;;;;26.85;18.95;;;;;;;18.74;100.00;98527.25;4191959;84;21020;-86
2022/08/14 06:04:56;;;;;;;23.02;19.05;;;;;;;18.78;100.00;98529.93;4186605;84;21136;-86
2022/08/14 06:11:16;;;;;;;27.37;19.57;;;;;;;18.86;100.00;98538.22;4183907;84;20979;-86
2022/08/14 06:17:17;;;;;;;25.40;20.00;;;;;;;18.92;100.00;98538.47;4196736;84;21082;-85
2022/08/14 06:30:13;;;;;;;25.92;20.12;;;;;;;18.98;100.00;98548.55;4193105;82;21055;-85
2022/08/14 06:36:19;;;;;;;25.95;19.95;;;;;;;18.98;100.00;98534.67;4183876;84;21017;-86
2022/08/14 06:42:20;;;;;;;28.77;19.00;;;;;;;19.04;100.00;98537.09;4189602;84;20999;-86
2022/08/14 06:48:23;;;;;;;22.52;16.55;;;;;;;19.17;100.00;98539.25;4185426;84;20987;-85
2022/08/14 06:54:25;;;;;;;23.75;17.37;;;;;;;19.35;100.00;98536.75;4183247;83;21050;-85
2022/08/14 07:00:28;;;;;;;20.30;17.42;;;;;;;19.44;100.00;98531.31;4186036;84;21551;-86
2022/08/14 07:06:29;;;;;;;20.30;15.80;;;;;;;19.38;100.00;98530.31;4182406;84;21067;-85
2022/08/14 07:12:31;;;;;;;20.75;15.30;;;;;;;19.39;100.00;98533.84;4194649;84;21041;-84
2022/08/14 07:18:35;;;;;;;19.27;15.48;;;;;;;19.37;100.00;98527.98;4193965;84;21114;-84
2022/08/14 07:24:36;;;;;;;16.75;14.40;;;;;;;19.31;100.00;98527.75;4181454;84;21014;-84
2022/08/14 07:30:38;;;;;;;20.17;14.33;;;;;;;19.40;100.00;98532.05;4184778;84;21565;-82
2022/08/14 07:36:39;;;;;;;16.00;13.95;;;;;;;19.44;100.00;98531.31;4192017;84;21000;-84
2022/08/14 07:42:41;;;;;;;14.30;11.78;;;;;;;19.50;100.00;98530.91;4191248;84;21008;-83
2022/08/14 07:48:56;;;;;;;15.30;12.82;;;;;;;19.57;100.00;98522.37;4198671;84;21663;-83
2022/08/14 08:09:17;;;;;;;17.52;12.55;;;;;;;19.85;100.00;98533.94;4170876;84;21107;-83
2022/08/14 08:15:25;;;;;;;15.30;11.45;;;;;;;19.99;100.00;98534.84;4224847;83;21378;-83
2022/08/14 08:21:26;;;;;;;15.10;12.88;;;;;;;20.05;100.00;98535.04;4213365;83;21455;-83
2022/08/14 08:27:27;;;;;;;12.18;10.32;;;;;;;20.18;100.00;98529.66;4198532;83;21728;-82
2022/08/14 08:33:35;;;;;;;16.82;11.30;;;;;;;20.27;100.00;98529.55;4218052;83;21028;-83
2022/08/14 08:40:01;;;;;;;11.97;9.90;;;;;;;20.42;100.00;98520.28;4225022;83;20976;-86
2022/08/14 08:53:16;;;;;;;10.70;9.03;;;;;;;20.63;100.00;98532.00;4228188;82;21749;-84
2022/08/14 08:59:28;;;;;;;13.80;9.98;;;;;;;20.75;100.00;98519.27;4136151;85;21015;-85
2022/08/14 09:05:31;;;;;;;11.80;9.63;;;;;;;20.83;100.00;98510.83;4127936;85;21060;-84
2022/08/14 09:11:35;;;;;;;11.75;9.15;;;;;;;21.26;100.00;98519.11;4134818;85;21594;-85
2022/08/14 09:17:37;;;;;;;9.23;7.97;;;;;;;21.59;100.00;98522.34;4112357;85;21629;-84
2022/08/14 09:23:49;;;;;;;10.55;8.50;;;;;;;21.65;100.00;98515.53;4087581;86;21565;-85
2022/08/14 09:29:54;;;;;;;8.80;6.92;;;;;;;21.60;100.00;98518.31;4218760;83;21056;-85
2022/08/14 09:36:36;;;;;;;8.90;7.05;;;;;;;21.55;100.00;98511.95;4213524;83;21007;-84
2022/08/14 09:43:09;;;;;;;8.00;7.22;;;;;;;21.50;100.00;98511.79;4210698;83;21504;-83
2022/08/14 09:49:10;;;;;;;8.65;7.30;;;;;;;21.86;100.00;98509.13;4224458;83;21599;-85
2022/08/14 09:55:23;;;;;;;10.30;7.47;;;;;;;22.23;100.00;98512.11;4210895;83;21002;-84
2022/08/14 10:01:39;;;;;;;9.13;7.42;;;;;;;22.30;100.00;98517.36;4197845;83;20960;-83
2022/08/14 10:07:49;;;;;;;7.78;6.15;;;;;;;22.19;100.00;98513.50;4201345;83;21038;-83
2022/08/14 10:13:55;;;;;;;7.35;5.85;;;;;;;22.21;100.00;98509.61;4196598;83;21591;-84
2022/08/14 10:19:58;;;;;;;8.35;6.33;;;;;;;22.34;100.00;98506.06;4209041;82;21928;-83
2022/08/14 10:26:08;;;;;;;7.17;5.37;;;;;;;22.61;100.00;98506.08;4212422;83;21024;-84
2022/08/14 10:32:12;;;;;;;7.20;5.42;;;;;;;22.74;100.00;98495.53;4206008;83;21054;-83
2022/08/14 10:38:13;;;;;;;6.58;5.67;;;;;;;22.70;100.00;98494.90;4234511;82;22230;-83
2022/08/14 10:44:21;;;;;;;6.97;4.72;;;;;;;22.78;100.00;98498.30;4235238;83;21026;-83
2022/08/14 10:50:32;;;;;;;5.60;5.10;;;;;;;22.90;100.00;98493.77;4227616;83;21070;-83
2022/08/14 10:56:34;;;;;;;7.55;5.45;;;;;;;23.11;100.00;98499.15;4227524;82;21560;-82
2022/08/14 11:02:38;;;;;;;6.30;4.80;;;;;;;23.34;100.00;98499.08;4209872;83;21066;-84
2022/08/14 11:08:40;;;;;;;4.53;4.12;;;;;;;23.56;100.00;98500.99;4213941;83;21115;-83
2022/08/14 11:14:41;;;;;;;4.78;4.30;;;;;;;23.91;100.00;98492.26;4213590;83;20987;-83
2022/08/14 11:20:54;;;;;;;4.25;3.80;;;;;;;24.16;100.00;98491.02;4218544;83;21019;-84
2022/08/14 11:26:58;;;;;;;4.67;4.03;;;;;;;24.15;99.89;98494.42;4212670;83;21557;-83
2022/08/14 11:33:02;;;;;;;4.90;4.33;;;;;;;24.31;98.64;98497.41;4225414;83;21708;-83
2022/08/14 11:39:04;;;;;;;4.10;3.65;;;;;;;24.41;98.18;98492.67;4223353;83;21105;-82
2022/08/14 11:45:09;;;;;;;3.83;3.05;;;;;;;24.39;93.17;98495.17;4211722;83;21024;-84
2022/08/14 11:51:26;;;;;;;3.33;2.75;;;;;;;24.28;92.15;98490.76;4213994;83;21067;-84
2022/08/14 11:57:29;;;;;;;3.35;2.80;;;;;;;24.28;92.15;98490.76;4205042;83;21956;-82
2022/08/14 12:03:45;;;;;;;4.40;3.30;;;;;;;24.40;93.02;98493.16;4220958;83;21072;-83
2022/08/14 12:09:49;;;;;;;;;;;;;;;24.72;88.96;98492.87;4214711;83;20996;-84
2022/08/14 12:16:04;;;;;;;4.03;2.90;;;;;;;24.75;90.95;98484.91;4204157;83;20138;-85
2022/08/14 12:22:06;;;;;;;3.43;2.97;;;;;;;24.74;90.91;98482.75;4211970;83;21021;-85
2022/08/14 12:28:11;;;;;;;4.15;3.55;;;;;;;24.76;90.53;98479.47;4208353;82;21017;-83
2022/08/14 12:34:18;;;;;;;3.80;2.95;;;;;;;24.86;90.21;98477.48;4213409;83;21023;-84
2022/08/14 12:40:27;;;;;;;5.30;3.47;;;;;;;24.89;89.63;98470.91;4207970;83;21010;-84
2022/08/14 12:46:36;;;;;;;3.00;2.70;;;;;;;25.00;88.57;98466.12;4209601;83;21034;-84
2022/08/14 12:52:40;;;;;;;3.55;2.87;;;;;;;24.68;88.64;98460.89;4180434;83;21936;-84
2022/08/14 12:58:49;;;;;;;6.37;3.22;;;;;;;24.53;88.78;98425.09;4198062;83;20988;-84
2022/08/14 13:04:52;;;;;;;4.60;4.08;;;;;;;24.65;88.17;98444.39;4207751;83;21118;-84
2022/08/14 13:10:57;;;;;;;4.17;3.08;;;;;;;24.59;87.97;98438.55;4204858;83;21047;-85
2022/08/14 13:17:01;;;;;;;3.05;2.75;;;;;;;24.68;87.99;98429.46;4203571;83;21046;-85
2022/08/14 13:23:03;;;;;;;3.45;2.25;;;;;;;24.66;86.76;98415.82;4202629;83;21048;-84
2022/08/14 13:29:05;;;;;;;5.50;3.10;;;;;;;24.51;86.22;98393.40;4201396;83;21054;-85
2022/08/14 13:35:08;;;;;;;2.95;2.50;;;;;;;24.51;86.22;98393.40;4208314;83;21053;-85
2022/08/14 13:41:10;;;;;;;4.00;2.60;;;;;;;24.68;85.98;98401.48;4199783;83;20991;-84
2022/08/14 13:47:13;;;;;;;4.35;3.52;;;;;;;24.79;85.42;98388.94;4198839;83;21138;-84
2022/08/14 13:53:16;;;;;;;5.65;5.15;;;;;;;24.97;85.24;98392.90;4203371;83;21101;-84
2022/08/14 13:59:17;;;;;;;5.75;5.10;;;;;;;25.02;84.73;98398.60;4196322;83;21019;-83
2022/08/14 14:05:19;;;;;;;6.10;5.33;;;;;;;24.80;84.60;98374.45;4199962;83;21099;-85
2022/08/14 14:11:23;;;;;;;6.35;5.50;;;;;;;24.80;84.60;98374.45;4201944;83;21602;-84
2022/08/14 14:17:25;;;;;;;6.83;6.10;;;;;;;24.76;84.67;98373.11;4198061;83;21026;-85
2022/08/14 14:23:28;;;;;;;7.87;7.05;;;;;;;24.90;83.83;98361.87;4198182;83;21141;-85
2022/08/14 14:29:32;;;;;;;7.90;6.45;;;;;;;24.90;83.83;98361.87;4194413;83;21087;-84
2022/08/14 14:35:33;;;;;;;6.10;5.50;;;;;;;24.92;83.51;98364.96;4213822;83;21054;-86
2022/08/14 14:41:40;;;;;;;6.83;6.08;;;;;;;24.74;83.22;98351.83;4122743;85;21150;-84
2022/08/14 14:47:46;;;;;;;9.93;5.95;;;;;;;24.85;82.34;98367.39;4190154;83;21306;-86
2022/08/14 14:53:47;;;;;;;6.80;5.97;;;;;;;24.79;82.55;98367.94;4220671;83;21055;-85
2022/08/14 14:59:48;;;;;;;7.17;6.08;;;;;;;24.79;81.98;98362.34;4211770;83;21514;-84
2022/08/14 15:05:52;;;;;;;7.08;6.05;;;;;;;24.78;82.05;98359.38;4211613;83;21047;-85
2022/08/14 15:11:52;;;;;;;7.72;6.22;;;;;;;24.78;81.41;98350.98;4207903;83;21106;-86
2022/08/14 15:17:54;;;;;;;8.00;6.65;;;;;;;24.80;81.10;98352.68;4212523;83;21152;-86
2022/08/14 15:23:59;;;;;;;7.33;6.62;;;;;;;24.71;81.27;98356.99;4219991;83;21463;-84
2022/08/14 15:30:00;;;;;;;8.33;6.80;;;;;;;24.62;81.17;98365.61;4230619;81;21012;-83
2022/08/14 15:36:03;;;;;;;9.15;7.12;;;;;;;24.61;80.84;98385.06;4200154;82;21028;-84
2022/08/14 15:42:05;;;;;;;7.33;6.62;;;;;;;24.50;81.20;98389.07;4194014;83;21093;-84
2022/08/14 15:48:07;;;;;;;9.90;7.67;;;;;;;24.39;81.46;98380.48;4199173;83;21079;-83
2022/08/14 15:54:09;;;;;;;9.60;7.62;;;;;;;24.26;81.84;98384.80;4197369;83;21078;-84
2022/08/14 16:06:32;;;;;;;9.20;7.30;;;;;;;24.17;82.26;98371.69;4199171;83;21066;-84
2022/08/14 16:12:33;;;;;;;9.08;7.53;;;;;;;24.16;82.41;98358.19;4200379;83;21035;-84
2022/08/14 16:18:37;;;;;;;8.48;7.67;;;;;;;24.12;82.76;98349.20;4198327;83;21963;-83
2022/08/14 16:24:42;;;;;;;9.03;7.72;;;;;;;24.09;82.74;98348.77;4191178;83;21105;-83
2022/08/14 16:30:47;;;;;;;10.25;8.23;;;;;;;24.03;82.68;98344.48;4199004;83;21150;-83
2022/08/14 16:36:49;;;;;;;11.08;9.60;;;;;;;23.97;82.91;98346.41;4220959;82;21642;-84
2022/08/14 16:42:54;;;;;;;10.23;8.83;;;;;;;23.89;83.21;98343.81;4215583;83;21134;-83
2022/08/14 16:48:58;;;;;;;10.30;8.85;;;;;;;23.82;83.21;98347.61;4229547;83;21845;-84
2022/08/14 16:55:00;;;;;;;12.47;8.50;;;;;;;23.74;83.24;98343.63;4223206;83;21350;-83
2022/08/14 17:01:21;;;;;;;9.78;8.78;;;;;;;23.58;83.58;98331.49;4234011;83;21870;-84
2022/08/14 17:07:23;;;;;;;10.18;9.10;;;;;;;23.48;83.59;98330.01;4205221;83;21082;-83
2022/08/14 17:13:30;;;;;;;10.75;9.18;;;;;;;23.36;83.96;98342.98;4222939;83;20995;-83
2022/08/14 17:19:39;;;;;;;12.60;9.73;;;;;;;23.24;84.16;98341.16;4224687;83;21139;-83
2022/08/14 17:25:40;;;;;;;12.33;11.03;;;;;;;23.18;84.46;98338.87;4220843;83;21528;-83
2022/08/14 17:31:47;;;;;;;10.60;9.48;;;;;;;23.03;84.51;98332.45;4217362;83;21120;-84
2022/08/14 17:37:48;;;;;;;11.70;10.05;;;;;;;22.91;85.00;98333.46;4077297;83;9999898;-84
2022/08/14 17:43:58;;;;;;;11.88;9.93;;;;;;;22.84;85.19;98337.37;4195263;83;21984;-83
2022/08/14 17:50:02;;;;;;;12.75;10.00;;;;;;;22.78;85.38;98337.08;4196302;83;21420;-83
2022/08/14 17:56:03;;;;;;;12.53;11.22;;;;;;;22.71;85.72;98330.44;4199698;83;21968;-83
2022/08/14 18:02:08;;;;;;;13.65;11.12;;;;;;;22.65;86.25;98326.13;4201160;83;21033;-83
2022/08/14 18:08:14;;;;;;;12.53;10.10;;;;;;;22.60;86.39;98327.38;4208747;83;21024;-84
2022/08/14 18:14:16;;;;;;;12.25;10.30;;;;;;;22.45;86.62;98328.66;4199424;83;21988;-83
2022/08/14 18:20:17;;;;;;;11.95;10.68;;;;;;;22.30;87.14;98332.59;4195826;83;20967;-83
2022/08/14 18:26:25;;;;;;;12.63;10.78;;;;;;;22.11;87.50;98336.65;4199544;83;21072;-83
2022/08/14 18:32:38;;;;;;;14.58;12.85;;;;;;;21.92;88.48;98354.02;4194434;83;22009;-83
2022/08/14 18:38:39;;;;;;;17.02;14.93;;;;;;;21.83;89.07;98348.46;4167389;83;21966;-84
2022/08/14 18:44:57;;;;;;;23.45;15.38;;;;;;;21.73;89.45;98351.05;4170233;83;21937;-83
2022/08/14 18:51:08;;;;;;;17.42;13.55;;;;;;;21.61;89.94;98356.17;4169848;84;21013;-83
2022/08/14 18:57:09;;;;;;;17.30;13.65;;;;;;;21.56;90.41;98358.17;4132519;84;22024;-83
2022/08/14 19:03:35;;;;;;;16.23;12.80;;;;;;;21.46;90.89;98362.17;4171317;84;21017;-84
2022/08/14 19:10:00;;;;;;;17.67;13.80;;;;;;;21.39;91.25;98370.84;4161551;83;20987;-84
2022/08/14 19:16:13;;;;;;;16.93;14.38;;;;;;;21.29;91.75;98362.30;4166843;83;21052;-83
2022/08/14 19:22:21;;;;;;;17.05;13.95;;;;;;;21.25;92.21;98359.66;4162739;83;21981;-84
2022/08/14 19:28:30;;;;;;;17.15;14.80;;;;;;;21.21;92.60;98357.66;4137070;84;21102;-83
2022/08/14 19:34:39;;;;;;;16.85;13.90;;;;;;;21.15;92.75;98354.55;4165785;83;21035;-83
2022/08/14 19:40:41;;;;;;;18.23;13.10;;;;;;;21.10;93.37;98357.32;4193661;84;21043;-82
2022/08/14 19:46:54;;;;;;;16.62;11.95;;;;;;;21.10;94.19;98369.05;4203608;83;21007;-82
2022/08/14 19:53:07;;;;;;;19.77;15.53;;;;;;;20.97;94.68;98365.00;4189029;84;21584;-82
2022/08/14 19:59:12;;;;;;;17.73;14.78;;;;;;;20.87;94.92;98364.02;4188723;84;21026;-84
2022/08/14 20:05:14;;;;;;;17.25;15.45;;;;;;;20.74;95.40;98357.17;4186848;84;21018;-82
2022/08/14 20:11:27;;;;;;;18.77;16.73;;;;;;;20.69;95.78;98359.16;4197394;84;21059;-83
2022/08/14 20:17:28;;;;;;;19.20;15.80;;;;;;;20.64;96.14;98359.74;4194738;84;21106;-82
2022/08/14 20:23:29;;;;;;;16.62;13.32;;;;;;;20.56;96.39;98350.77;4189462;83;21028;-83
2022/08/14 20:29:31;;;;;;;19.50;16.17;;;;;;;20.43;96.91;98338.34;4197017;84;21260;-83
2022/08/14 20:35:41;;;;;;;20.27;14.73;;;;;;;20.31;97.29;98346.77;4171980;84;21071;-82
2022/08/14 20:41:44;;;;;;;18.48;14.43;;;;;;;20.24;97.88;98350.59;4130653;85;21083;-83
2022/08/14 20:47:50;;;;;;;19.48;16.12;;;;;;;20.15;98.09;98345.73;4117795;85;21063;-83
2022/08/14 20:54:04;;;;;;;20.83;16.93;;;;;;;20.01;98.62;98337.91;4116264;85;21019;-82
2022/08/14 21:00:07;;;;;;;22.25;17.10;;;;;;;19.94;98.96;98331.23;4125570;85;21006;-83
2022/08/14 21:06:18;;;;;;;23.70;17.95;;;;;;;19.86;99.59;98327.16;4120418;85;21021;-84
2022/08/14 21:12:23;;;;;;;19.45;16.42;;;;;;;19.66;99.21;98328.70;4123986;85;21015;-82
2022/08/14 21:18:29;;;;;;;19.42;15.75;;;;;;;19.59;100.00;98321.40;4129502;84;21457;-85
2022/08/14 21:24:32;;;;;;;22.67;16.62;;;;;;;19.63;100.00;98329.61;4122671;85;21080;-83
2022/08/14 21:30:35;;;;;;;23.25;18.82;;;;;;;19.42;100.00;98323.44;4129757;85;21039;-82
2022/08/14 21:36:39;;;;;;;23.87;18.07;;;;;;;19.28;100.00;98322.53;4165958;83;21717;-82
2022/08/14 21:42:40;;;;;;;26.62;18.45;;;;;;;19.30;100.00;98318.08;4244152;83;21629;-82
2022/08/14 21:48:42;;;;;;;23.25;18.87;;;;;;;19.28;100.00;98319.77;4236162;83;21033;-82
2022/08/14 21:54:44;;;;;;;28.10;21.33;;;;;;;19.18;100.00;98311.14;4225803;83;20990;-82
2022/08/14 22:00:47;;;;;;;27.45;19.80;;;;;;;19.11;100.00;98305.83;4234305;83;21554;-82
2022/08/14 22:06:50;;;;;;;27.73;21.48;;;;;;;19.01;100.00;98311.92;4229831;83;21062;-82
2022/08/14 22:12:52;;;;;;;26.57;19.80;;;;;;;18.94;100.00;98312.14;4238748;83;21010;-83
2022/08/14 22:18:53;;;;;;;24.80;19.32;;;;;;;18.93;100.00;98309.81;4231857;82;20990;-82
2022/08/14 22:24:57;;;;;;;25.48;19.35;;;;;;;18.94;100.00;98306.59;4227186;83;21051;-83
2022/08/14 22:31:03;;;;;;;25.20;20.00;;;;;;;18.87;100.00;98320.68;4236954;82;21034;-82
2022/08/14 22:37:04;;;;;;;29.73;20.97;;;;;;;18.70;100.00;98304.80;4223817;83;21055;-82
2022/08/14 22:43:09;;;;;;;28.20;21.15;;;;;;;18.54;100.00;98314.61;4208400;83;21109;-83
2022/08/14 22:49:14;;;;;;;28.25;21.60;;;;;;;18.41;100.00;98306.14;4215999;83;21062;-81
2022/08/14 22:55:16;;;;;;;29.82;22.25;;;;;;;18.33;100.00;98309.72;4211262;83;21605;-82
2022/08/14 23:01:27;;;;;;;27.20;20.62;;;;;;;18.26;100.00;98303.63;4202401;83;21036;-82
2022/08/14 23:07:29;;;;;;;26.70;21.70;;;;;;;18.27;100.00;98310.70;4198303;83;20997;-83
2022/08/14 23:13:32;;;;;;;27.02;20.92;;;;;;;18.26;100.00;98303.00;4216503;83;21181;-82
2022/08/14 23:19:33;;;;;;;25.92;21.15;;;;;;;18.22;100.00;98302.34;4210013;83;21689;-82
2022/08/14 23:25:37;;;;;;;28.55;20.95;;;;;;;18.15;100.00;98294.23;4208867;83;21039;-82
2022/08/14 23:31:38;;;;;;;28.45;21.45;;;;;;;18.09;100.00;98290.46;4196262;83;21077;-82
2022/08/14 23:37:43;;;;;;;26.17;20.32;;;;;;;18.06;100.00;98295.50;4213845;83;21066;-82
2022/08/14 23:43:48;;;;;;;30.15;21.25;;;;;;;17.99;100.00;98294.94;4211361;83;21088;-82
2022/08/14 23:49:49;;;;;;;33.43;22.83;;;;;;;17.91;100.00;98299.91;4209124;83;21639;-82
2022/08/14 23:55:52;;;;;;;27.58;20.62;;;;;;;17.84;100.00;98291.80;4215430;83;21030;-84
